Time;durP1;ratioP1;P1;durP2;ratioP2;P2;SDS_P1;SDS_P2;PMS_P1;PMS_P2;Temp;Humidity;BMP_temperature;BMP_pressure;BME280_temperature;BME280_humidity;BME280_pressure;Samples;Min_cycle;Max_cycle;Signal;HPM_P1;HPM_P2
2024/04/16 00:01:43;;;;;;;3.45;2.03;;;9.90;91.70;;;;;;5478946;26;20485;-74
2024/04/16 00:04:29;;;;;;;1.83;1.40;;;9.90;91.70;;;;;;5484453;26;20005;-74
2024/04/16 00:07:15;;;;;;;2.92;1.60;;;9.90;91.60;;;;;;5475781;26;20083;-74
2024/04/16 00:10:01;;;;;;;2.75;1.58;;;9.90;91.60;;;;;;5480295;26;20037;-74
2024/04/16 00:12:48;;;;;;;2.90;1.70;;;9.90;91.60;;;;;;5481233;26;20030;-74
2024/04/16 00:15:34;;;;;;;3.63;1.52;;;9.90;91.60;;;;;;5466348;26;19990;-74
2024/04/16 00:18:20;;;;;;;2.80;1.55;;;9.90;91.50;;;;;;5469533;26;20013;-74
2024/04/16 00:21:05;;;;;;;3.55;1.90;;;9.90;91.50;;;;;;5475632;26;19994;-73
2024/04/16 00:23:51;;;;;;;5.35;2.25;;;9.90;91.70;;;;;;5483098;26;20349;-74
2024/04/16 00:26:38;;;;;;;3.85;1.92;;;9.90;91.50;;;;;;5480004;26;20429;-74
2024/04/16 00:29:24;;;;;;;5.72;2.80;;;10.00;91.50;;;;;;5474183;26;20005;-74
2024/04/16 00:32:11;;;;;;;3.58;2.53;;;10.00;91.40;;;;;;5471690;26;20070;-74
2024/04/16 00:34:57;;;;;;;5.13;2.13;;;10.00;91.50;;;;;;5481888;26;19998;-74
2024/04/16 00:37:43;;;;;;;2.47;1.90;;;10.00;91.40;;;;;;5481595;26;20020;-75
2024/04/16 00:40:29;;;;;;;4.97;2.83;;;10.00;91.40;;;;;;5483169;26;20342;-75
2024/04/16 00:43:19;;;;;;;4.47;2.13;;;10.00;91.40;;;;;;5456832;26;20005;-74
2024/04/16 00:46:06;;;;;;;5.25;2.45;;;10.00;91.30;;;;;;5423941;26;20030;-74
2024/04/16 00:48:52;;;;;;;6.35;2.55;;;10.00;91.30;;;;;;5455873;26;20010;-73
2024/04/16 00:51:39;;;;;;;5.57;3.30;;;10.00;91.20;;;;;;5469404;26;20009;-73
2024/04/16 00:54:26;;;;;;;5.30;2.95;;;10.00;91.20;;;;;;5456853;26;20330;-73
2024/04/16 00:57:13;;;;;;;3.70;2.50;;;10.00;91.10;;;;;;5482872;26;20042;-74
2024/04/16 00:59:59;;;;;;;6.55;3.47;;;10.00;91.20;;;;;;5471973;26;19994;-74
2024/04/16 01:02:45;;;;;;;5.47;3.20;;;10.10;91.10;;;;;;5477781;26;20012;-74
2024/04/16 01:05:32;;;;;;;5.40;2.63;;;10.00;91.10;;;;;;5477876;26;20443;-74
2024/04/16 01:08:18;;;;;;;5.60;2.75;;;10.00;91.00;;;;;;5478167;26;19994;-73
2024/04/16 01:11:04;;;;;;;4.68;2.60;;;10.00;91.00;;;;;;5484584;26;20005;-73
2024/04/16 01:13:50;;;;;;;8.18;3.03;;;10.10;91.00;;;;;;5481176;26;20002;-73
2024/04/16 01:16:36;;;;;;;5.95;3.45;;;10.10;91.00;;;;;;5479215;26;20059;-73
2024/04/16 01:19:22;;;;;;;4.07;3.35;;;10.10;90.90;;;;;;5457019;26;20013;-72
2024/04/16 01:22:10;;;;;;;4.53;2.85;;;10.10;90.80;;;;;;5455756;26;19998;-73
2024/04/16 01:24:56;;;;;;;4.03;2.70;;;10.00;90.70;;;;;;5459743;26;20001;-73
2024/04/16 01:27:42;;;;;;;4.45;2.75;;;10.10;90.70;;;;;;5469456;26;20062;-73
2024/04/16 01:30:28;;;;;;;4.50;2.70;;;10.10;90.70;;;;;;5484868;26;20005;-72
2024/04/16 01:33:14;;;;;;;3.42;2.75;;;10.10;90.60;;;;;;5480827;26;20532;-73
2024/04/16 01:36:00;;;;;;;10.23;4.03;;;10.00;90.60;;;;;;5453335;26;20180;-73
2024/04/16 01:38:46;;;;;;;7.63;2.95;;;10.10;90.50;;;;;;5472315;26;19995;-73
2024/04/16 01:41:32;;;;;;;4.13;3.13;;;10.10;90.40;;;;;;5484065;26;20005;-74
2024/04/16 01:44:18;;;;;;;4.43;2.90;;;10.00;90.30;;;;;;5454051;26;20088;-72
2024/04/16 01:47:04;;;;;;;3.88;2.60;;;10.00;90.30;;;;;;5476892;26;20010;-73
2024/04/16 01:49:50;;;;;;;5.20;3.17;;;10.00;90.30;;;;;;5475345;26;20322;-73
2024/04/16 01:52:35;;;;;;;7.60;3.00;;;10.10;90.30;;;;;;5470778;26;20070;-73
2024/04/16 01:55:21;;;;;;;5.45;3.30;;;10.10;90.20;;;;;;5480458;26;19998;-72
2024/04/16 01:58:07;;;;;;;7.65;2.95;;;10.10;90.20;;;;;;5475515;26;19994;-72
2024/04/16 02:01:00;;;;;;;5.05;2.83;;;10.00;90.00;;;;;;5447691;26;20017;-73
2024/04/16 02:03:46;;;;;;;3.80;2.85;;;10.00;90.00;;;;;;5472694;26;20014;-72
2024/04/16 02:06:32;;;;;;;4.00;2.42;;;9.90;89.90;;;;;;5450540;26;20096;-72
2024/04/16 02:09:18;;;;;;;5.90;2.83;;;9.90;90.00;;;;;;5471228;26;20306;-72
2024/04/16 02:12:04;;;;;;;5.43;2.63;;;10.00;90.00;;;;;;5483895;26;19994;-72
2024/04/16 02:14:50;;;;;;;6.32;2.08;;;10.00;90.00;;;;;;5483097;26;19994;-72
2024/04/16 02:17:37;;;;;;;5.78;3.08;;;10.00;90.00;;;;;;5472169;26;20022;-72
2024/04/16 02:20:23;;;;;;;4.95;2.45;;;9.90;90.00;;;;;;5470775;26;20322;-72
2024/04/16 02:23:10;;;;;;;6.93;2.97;;;10.00;89.90;;;;;;5466637;26;19998;-72
2024/04/16 02:25:57;;;;;;;6.07;2.72;;;10.00;89.80;;;;;;5462624;26;19991;-72
2024/04/16 02:28:42;;;;;;;5.25;2.80;;;10.00;89.80;;;;;;5448910;26;20003;-71
2024/04/16 02:31:30;;;;;;;5.28;3.03;;;10.00;89.60;;;;;;5482653;26;20071;-72
2024/04/16 02:34:16;;;;;;;5.53;2.72;;;10.00;89.60;;;;;;5482194;26;19994;-73
2024/04/16 02:37:03;;;;;;;4.22;2.58;;;10.00;89.50;;;;;;5460417;26;19998;-72
2024/04/16 02:39:49;;;;;;;4.30;2.38;;;10.00;89.40;;;;;;5455256;26;20024;-72
2024/04/16 02:42:38;;;;;;;3.35;2.60;;;10.00;89.30;;;;;;5472194;26;20002;-72
2024/04/16 02:45:23;;;;;;;3.67;2.22;;;10.00;89.20;;;;;;5485155;26;20008;-72
2024/04/16 02:48:09;;;;;;;3.90;2.88;;;10.00;89.30;;;;;;5473047;26;20026;-73
2024/04/16 02:50:57;;;;;;;6.70;2.53;;;9.90;89.00;;;;;;5477019;26;20444;-73
2024/04/16 02:53:43;;;;;;;3.92;2.60;;;9.90;88.90;;;;;;5476257;26;20038;-72
2024/04/16 02:56:29;;;;;;;3.53;2.38;;;9.80;88.70;;;;;;5454449;26;20007;-72
2024/04/16 02:59:15;;;;;;;5.70;2.50;;;9.90;88.80;;;;;;5468216;26;20561;-72
2024/04/16 03:02:01;;;;;;;3.72;2.55;;;9.90;88.70;;;;;;5477647;26;20012;-73
2024/04/16 03:04:47;;;;;;;3.75;2.65;;;9.80;88.50;;;;;;5484787;26;20026;-72
2024/04/16 03:07:33;;;;;;;2.95;2.40;;;9.80;88.60;;;;;;5483778;26;20026;-71
2024/04/16 03:10:19;;;;;;;5.20;2.33;;;9.70;88.50;;;;;;5485597;26;19998;-71
2024/04/16 03:13:05;;;;;;;3.63;2.75;;;9.70;88.40;;;;;;5472760;26;20066;-71
2024/04/16 03:15:51;;;;;;;5.88;2.70;;;9.60;88.40;;;;;;5472654;26;19999;-71
2024/04/16 03:18:37;;;;;;;5.53;2.08;;;9.60;88.40;;;;;;5459735;26;20353;-71
2024/04/16 03:21:23;;;;;;;4.63;2.63;;;9.60;88.50;;;;;;5458155;26;20006;-72
2024/04/16 03:24:09;;;;;;;3.15;2.13;;;9.60;88.40;;;;;;5470474;26;20010;-71
2024/04/16 03:26:55;;;;;;;4.93;2.40;;;9.60;88.50;;;;;;5484160;26;19994;-74
2024/04/16 03:29:41;;;;;;;2.50;1.70;;;9.60;88.60;;;;;;5485326;26;19994;-73
2024/04/16 03:32:27;;;;;;;4.13;2.08;;;9.60;88.60;;;;;;5467174;26;20085;-74
2024/04/16 03:35:13;;;;;;;3.45;1.95;;;9.60;88.70;;;;;;5461175;26;20089;-75
2024/04/16 03:37:59;;;;;;;2.65;2.08;;;9.50;88.80;;;;;;5482439;26;20043;-74
2024/04/16 03:40:56;;;;;;;3.13;2.33;;;9.50;88.80;;;;;;5488169;26;19998;-75
2024/04/16 03:43:42;;;;;;;3.95;2.50;;;9.60;88.90;;;;;;5476863;26;19998;-74
2024/04/16 03:46:28;;;;;;;2.88;1.98;;;9.50;88.80;;;;;;5488277;26;20018;-75
2024/04/16 03:49:14;;;;;;;5.05;2.50;;;9.50;88.90;;;;;;5486974;26;20342;-75
2024/04/16 03:52:00;;;;;;;4.45;2.25;;;9.50;88.80;;;;;;5470716;26;20377;-74
2024/04/16 03:54:46;;;;;;;4.13;2.10;;;9.60;88.80;;;;;;5478950;26;20349;-76
2024/04/16 03:57:32;;;;;;;3.17;1.85;;;9.60;88.90;;;;;;5458197;26;20438;-75
2024/04/16 04:03:23;;;;;;;3.60;1.75;;;9.50;88.70;;;;;;5471693;26;19998;-76
2024/04/16 04:06:10;;;;;;;2.25;1.83;;;9.50;88.70;;;;;;5483742;26;20070;-73
2024/04/16 04:08:56;;;;;;;2.78;1.90;;;9.60;88.70;;;;;;5459426;26;19994;-73
2024/04/16 04:11:41;;;;;;;4.75;1.90;;;9.50;88.60;;;;;;5488633;26;20337;-72
2024/04/16 04:14:27;;;;;;;2.13;1.60;;;9.50;88.80;;;;;;5487572;26;20484;-76
2024/04/16 04:17:13;;;;;;;3.30;2.00;;;9.50;88.80;;;;;;5477935;26;20564;-67
2024/04/16 04:20:00;;;;;;;2.00;1.60;;;9.50;88.90;;;;;;5467972;26;20032;-69
2024/04/16 04:22:46;;;;;;;3.00;1.65;;;9.50;88.90;;;;;;5485190;26;20006;-70
2024/04/16 04:25:32;;;;;;;2.70;1.77;;;9.50;89.10;;;;;;5470200;26;20009;-68
2024/04/16 04:28:18;;;;;;;3.38;1.77;;;9.50;89.20;;;;;;5477701;26;20326;-65
2024/04/16 04:31:20;;;;;;;4.50;2.50;;;9.50;89.20;;;;;;5486356;26;19990;-66
2024/04/16 04:34:06;;;;;;;3.42;1.65;;;9.50;89.30;;;;;;5465185;26;20351;-66
2024/04/16 04:36:52;;;;;;;2.60;1.70;;;9.50;89.20;;;;;;5473707;26;20099;-65
2024/04/16 04:39:38;;;;;;;3.13;1.67;;;9.50;89.10;;;;;;5458285;26;20446;-65
2024/04/16 04:42:26;;;;;;;3.35;2.33;;;9.50;89.00;;;;;;5461321;26;20435;-66
2024/04/16 04:45:12;;;;;;;3.72;1.80;;;9.50;89.10;;;;;;5486305;26;20010;-66
2024/04/16 04:47:58;;;;;;;5.47;2.60;;;9.50;89.30;;;;;;5481727;26;20022;-66
2024/04/16 04:50:44;;;;;;;4.30;2.30;;;9.50;89.90;;;;;;5488475;26;20066;-68
2024/04/16 04:53:30;;;;;;;3.72;2.10;;;9.50;89.60;;;;;;5484579;26;19994;-66
2024/04/16 04:56:16;;;;;;;2.08;1.63;;;9.60;89.60;;;;;;5466249;26;20563;-66
2024/04/16 04:59:02;;;;;;;3.67;1.80;;;9.60;89.50;;;;;;5472073;26;20441;-66
2024/04/16 05:01:48;;;;;;;3.35;2.20;;;9.60;89.60;;;;;;5486681;26;20006;-65
2024/04/16 05:04:33;;;;;;;3.50;1.85;;;9.70;89.60;;;;;;5485914;26;20013;-66
2024/04/16 05:07:19;;;;;;;3.45;2.10;;;9.70;89.80;;;;;;5488793;26;20002;-66
2024/04/16 05:10:06;;;;;;;3.72;2.20;;;9.80;89.90;;;;;;5483097;26;20006;-67
2024/04/16 05:12:52;;;;;;;3.63;1.90;;;9.80;90.00;;;;;;5477642;26;20007;-66
2024/04/16 05:15:38;;;;;;;3.33;2.33;;;9.80;90.10;;;;;;5468505;26;20070;-67
2024/04/16 05:18:24;;;;;;;2.50;1.88;;;9.80;90.30;;;;;;5476911;26;20319;-67
2024/04/16 05:21:11;;;;;;;4.95;2.45;;;9.80;90.40;;;;;;5484196;26;20400;-67
2024/04/16 05:23:57;;;;;;;3.13;1.98;;;9.80;90.50;;;;;;5487627;26;20136;-67
2024/04/16 05:26:44;;;;;;;4.30;2.30;;;9.80;90.60;;;;;;5487611;26;19994;-67
2024/04/16 05:29:30;;;;;;;4.28;2.13;;;9.80;90.80;;;;;;5479937;25;20009;-67
2024/04/16 05:32:15;;;;;;;3.42;2.33;;;9.80;90.90;;;;;;5465218;26;20002;-67
2024/04/16 05:35:02;;;;;;;3.95;2.20;;;9.80;91.00;;;;;;5474966;26;19994;-66
2024/04/16 05:37:48;;;;;;;2.90;2.53;;;9.80;91.10;;;;;;5479273;26;19998;-66
2024/04/16 05:40:34;;;;;;;4.30;2.45;;;9.80;91.20;;;;;;5473567;26;20010;-67
2024/04/16 05:43:20;;;;;;;3.85;2.35;;;9.90;91.30;;;;;;5453720;26;20462;-66
2024/04/16 05:46:06;;;;;;;4.75;3.25;;;9.90;91.40;;;;;;5485246;26;19994;-66
2024/04/16 05:48:51;;;;;;;2.97;2.08;;;10.00;91.50;;;;;;5472808;26;20405;-66
2024/04/16 05:51:37;;;;;;;3.80;2.70;;;10.00;91.50;;;;;;5486027;26;20006;-66
2024/04/16 05:54:24;;;;;;;2.92;2.28;;;10.10;91.70;;;;;;5466434;26;20010;-66
2024/04/16 05:57:10;;;;;;;3.75;2.28;;;10.20;91.80;;;;;;5483140;26;19998;-67
2024/04/16 05:59:56;;;;;;;3.80;1.88;;;10.20;91.80;;;;;;5484715;26;19998;-67
2024/04/16 06:02:42;;;;;;;4.10;2.00;;;10.20;91.70;;;;;;5480155;25;20014;-67
2024/04/16 06:05:28;;;;;;;2.95;1.90;;;10.20;91.60;;;;;;5438354;26;19994;-67
2024/04/16 06:08:14;;;;;;;4.35;2.35;;;10.20;91.60;;;;;;5474451;26;20071;-67
2024/04/16 06:11:00;;;;;;;3.47;2.15;;;10.20;91.70;;;;;;5482481;26;20006;-67
2024/04/16 06:13:46;;;;;;;3.92;2.22;;;10.20;91.80;;;;;;5482870;26;20029;-67
2024/04/16 06:16:32;;;;;;;4.13;2.80;;;10.10;91.80;;;;;;5479462;26;20034;-67
2024/04/16 06:19:18;;;;;;;4.32;2.63;;;10.20;91.90;;;;;;5470178;26;20010;-68
2024/04/16 06:22:04;;;;;;;6.07;2.22;;;10.20;91.90;;;;;;5480092;26;19990;-68
2024/04/16 06:24:51;;;;;;;4.80;2.88;;;10.20;92.10;;;;;;5475636;26;20017;-68
2024/04/16 06:27:36;;;;;;;3.95;2.20;;;10.20;92.10;;;;;;5474127;26;20449;-68
2024/04/16 06:30:22;;;;;;;3.55;2.33;;;10.20;92.30;;;;;;5463379;26;20450;-68
2024/04/16 06:33:08;;;;;;;6.03;2.78;;;10.20;92.30;;;;;;5461537;26;20425;-68
2024/04/16 06:35:54;;;;;;;3.63;2.50;;;10.20;92.30;;;;;;5477924;26;20013;-68
2024/04/16 06:38:40;;;;;;;4.25;2.45;;;10.30;92.30;;;;;;5473583;26;19994;-68
2024/04/16 06:41:26;;;;;;;4.72;2.78;;;10.30;92.30;;;;;;5471593;26;20022;-68
2024/04/16 06:44:12;;;;;;;4.97;2.63;;;10.30;92.40;;;;;;5473850;26;20021;-70
2024/04/16 06:46:58;;;;;;;4.70;2.40;;;10.30;92.50;;;;;;5477188;26;19994;-68
2024/04/16 06:49:44;;;;;;;3.72;2.60;;;10.40;92.50;;;;;;5478269;26;20434;-69
2024/04/16 06:52:30;;;;;;;6.10;2.33;;;10.40;92.40;;;;;;5485880;26;19998;-69
2024/04/16 06:55:16;;;;;;;5.35;2.80;;;10.40;92.40;;;;;;5481517;26;20446;-68
2024/04/16 06:58:02;;;;;;;4.78;2.50;;;10.40;92.30;;;;;;5475830;26;20438;-69
2024/04/16 07:00:48;;;;;;;2.80;2.22;;;10.40;92.30;;;;;;5464461;26;20473;-68
2024/04/16 07:03:34;;;;;;;3.90;2.42;;;10.30;92.30;;;;;;5455533;26;19999;-68
2024/04/16 07:06:20;;;;;;;4.53;2.65;;;10.30;92.30;;;;;;5458755;26;20024;-70
2024/04/16 07:09:06;;;;;;;5.25;3.20;;;10.20;92.50;;;;;;5472283;26;20002;-68
2024/04/16 07:11:52;;;;;;;4.60;3.13;;;10.20;92.60;;;;;;5480113;26;20014;-68
2024/04/16 07:14:38;;;;;;;7.28;3.38;;;10.20;92.70;;;;;;5458325;26;20500;-68
2024/04/16 07:17:24;;;;;;;4.68;3.15;;;10.20;92.70;;;;;;5481976;26;20048;-69
2024/04/16 07:20:10;;;;;;;5.97;3.10;;;10.20;92.70;;;;;;5461793;26;19998;-69
2024/04/16 07:22:55;;;;;;;8.43;3.45;;;10.20;92.70;;;;;;5476137;26;19998;-73
2024/04/16 07:25:45;;;;;;;4.78;2.95;;;10.20;92.80;;;;;;5481329;26;20446;-71
2024/04/16 07:28:31;;;;;;;5.22;2.80;;;10.20;92.90;;;;;;5462531;26;20133;-71
2024/04/16 07:31:18;;;;;;;5.95;2.97;;;10.20;92.90;;;;;;5478284;26;20006;-73
2024/04/16 07:34:04;;;;;;;4.45;2.72;;;10.20;92.90;;;;;;5452203;26;20131;-72
2024/04/16 07:36:49;;;;;;;5.97;3.40;;;10.10;93.00;;;;;;5479885;26;19994;-71
2024/04/16 07:39:35;;;;;;;3.72;2.58;;;10.20;93.10;;;;;;5467758;26;20438;-71
2024/04/16 07:42:21;;;;;;;7.40;3.50;;;10.20;93.20;;;;;;5456816;26;19995;-72
2024/04/16 07:45:07;;;;;;;5.78;2.90;;;10.20;93.20;;;;;;5467638;26;19994;-71
2024/04/16 07:47:53;;;;;;;5.80;3.10;;;10.30;93.20;;;;;;5461115;26;20071;-71
2024/04/16 07:50:39;;;;;;;4.72;3.22;;;10.30;93.20;;;;;;5474151;26;20012;-71
2024/04/16 07:53:25;;;;;;;5.07;2.70;;;10.30;93.30;;;;;;5472372;26;20009;-70
2024/04/16 07:56:11;;;;;;;7.65;2.78;;;10.30;93.30;;;;;;5475362;26;19990;-70
2024/04/16 07:58:57;;;;;;;6.85;3.67;;;10.20;93.30;;;;;;5474727;26;20002;-71
2024/04/16 08:01:43;;;;;;;7.60;3.38;;;10.20;93.30;;;;;;5477121;26;20009;-70
2024/04/16 08:04:29;;;;;;;4.05;2.72;;;10.30;93.40;;;;;;5458640;26;20012;-71
2024/04/16 08:07:15;;;;;;;3.65;2.25;;;10.30;93.40;;;;;;5446699;26;20002;-71
2024/04/16 08:10:03;;;;;;;9.02;3.58;;;10.40;93.40;;;;;;5466941;26;20006;-70
2024/04/16 08:12:49;;;;;;;6.13;3.03;;;10.40;93.40;;;;;;5475732;26;20070;-71
2024/04/16 08:15:35;;;;;;;8.68;3.60;;;10.40;93.40;;;;;;5455178;26;19999;-71
2024/04/16 08:18:21;;;;;;;6.53;3.03;;;10.40;93.40;;;;;;5479134;26;20410;-71
2024/04/16 08:21:06;;;;;;;5.43;2.67;;;10.40;93.50;;;;;;5461061;26;20072;-71
2024/04/16 08:23:53;;;;;;;4.18;2.72;;;10.40;93.50;;;;;;5475762;26;20469;-72
2024/04/16 08:26:38;;;;;;;5.85;2.42;;;10.40;93.50;;;;;;5475968;26;20089;-71
2024/04/16 08:29:24;;;;;;;9.82;3.42;;;10.40;93.50;;;;;;5473808;26;20008;-71
2024/04/16 08:32:10;;;;;;;5.95;2.85;;;10.40;93.40;;;;;;5483038;26;20009;-71
2024/04/16 08:34:56;;;;;;;7.65;3.00;;;10.40;93.30;;;;;;5478833;26;20037;-71
2024/04/16 08:37:42;;;;;;;6.63;3.85;;;10.40;93.30;;;;;;5466114;26;20002;-73
2024/04/16 08:40:28;;;;;;;6.78;3.80;;;10.30;93.20;;;;;;5472142;26;19995;-71
2024/04/16 08:43:14;;;;;;;5.70;3.00;;;10.30;93.30;;;;;;5462621;26;20164;-72
2024/04/16 08:46:03;;;;;;;7.03;3.53;;;10.30;93.40;;;;;;5473643;26;19998;-72
2024/04/16 08:48:50;;;;;;;4.88;2.83;;;10.20;93.40;;;;;;5452748;26;20367;-71
2024/04/16 08:51:37;;;;;;;7.30;3.40;;;10.30;93.50;;;;;;5457410;26;20013;-71
2024/04/16 08:54:24;;;;;;;9.02;3.65;;;10.30;93.60;;;;;;5467772;26;20001;-70
2024/04/16 08:57:11;;;;;;;6.50;3.47;;;10.30;93.70;;;;;;5474006;26;20003;-71
2024/04/16 08:59:56;;;;;;;4.90;3.33;;;10.30;93.80;;;;;;5483847;26;20025;-70
2024/04/16 09:02:44;;;;;;;8.15;3.65;;;10.30;94.00;;;;;;5466596;26;20030;-71
2024/04/16 09:05:30;;;;;;;4.57;3.15;;;10.40;94.10;;;;;;5477275;26;20441;-70
2024/04/16 09:08:16;;;;;;;8.23;3.90;;;10.40;94.20;;;;;;5460965;26;20018;-70
2024/04/16 09:11:02;;;;;;;7.55;3.72;;;10.50;94.20;;;;;;5478440;26;20456;-70
2024/04/16 09:13:48;;;;;;;5.25;3.28;;;10.50;94.30;;;;;;5475984;26;20013;-70
2024/04/16 09:16:35;;;;;;;6.80;2.90;;;10.70;94.40;;;;;;5483697;26;19998;-70
2024/04/16 09:19:26;;;;;;;7.03;3.30;;;10.70;94.50;;;;;;5475973;26;20343;-70
2024/04/16 09:22:12;;;;;;;6.90;3.03;;;10.90;94.50;;;;;;5454847;26;19998;-69
2024/04/16 09:25:08;;;;;;;4.82;2.80;;;11.00;94.60;;;;;;5482594;26;20326;-72
2024/04/16 09:27:56;;;;;;;7.22;3.30;;;11.20;94.70;;;;;;5482816;26;19997;-71
2024/04/16 09:30:56;;;;;;;11.15;3.28;;;11.30;94.70;;;;;;5467774;25;19991;-72
2024/04/16 09:52:35;;;;;;;5.38;2.50;;;11.60;93.80;;;;;;5476986;26;19990;-70
2024/04/16 09:55:22;;;;;;;8.38;3.42;;;11.60;93.60;;;;;;5470876;26;20130;-71
2024/04/16 09:58:09;;;;;;;6.90;2.90;;;11.70;93.40;;;;;;5450969;26;19998;-69
2024/04/16 10:00:56;;;;;;;6.68;2.38;;;11.80;93.20;;;;;;5466217;26;19990;-70
2024/04/16 10:03:45;;;;;;;7.15;2.65;;;11.90;92.90;;;;;;5483685;26;20006;-70
2024/04/16 10:06:31;;;;;;;4.20;2.50;;;11.90;92.70;;;;;;5476778;26;19998;-70
2024/04/16 10:09:19;;;;;;;5.40;2.10;;;12.00;92.50;;;;;;5446875;26;20316;-71
2024/04/16 10:12:05;;;;;;;4.57;2.10;;;12.10;92.10;;;;;;5463582;26;20330;-69
2024/04/16 10:14:52;;;;;;;7.15;2.47;;;12.30;91.80;;;;;;5481708;26;20446;-71
2024/04/16 10:17:55;;;;;;;4.70;2.22;;;12.40;91.80;;;;;;5461713;26;20010;-70
2024/04/16 10:20:55;;;;;;;4.18;2.00;;;12.60;91.50;;;;;;5459835;26;20041;-71
2024/04/16 10:23:41;;;;;;;6.18;2.03;;;12.80;91.30;;;;;;5466141;26;20438;-71
2024/04/16 10:26:29;;;;;;;7.18;2.13;;;12.90;91.10;;;;;;5451885;26;20009;-71
2024/04/16 10:29:24;;;;;;;6.22;2.53;;;13.00;90.80;;;;;;5479318;26;20002;-71
2024/04/16 10:32:10;;;;;;;4.22;1.90;;;13.10;90.90;;;;;;5473802;26;20005;-70
2024/04/16 10:34:59;;;;;;;5.45;1.95;;;13.30;90.60;;;;;;5482301;26;19999;-71
2024/04/16 10:37:50;;;;;;;6.43;2.20;;;13.30;90.30;;;;;;5445899;26;20025;-73
2024/04/16 10:40:37;;;;;;;5.80;2.00;;;13.40;89.80;;;;;;5456178;26;20006;-73
2024/04/16 10:43:24;;;;;;;4.18;1.92;;;13.40;88.80;;;;;;5461723;26;20006;-72
2024/04/16 10:46:10;;;;;;;5.35;1.70;;;13.40;88.30;;;;;;5457619;26;20030;-72
2024/04/16 10:48:56;;;;;;;4.10;1.98;;;13.50;88.10;;;;;;5480583;26;19998;-73
2024/04/16 10:51:42;;;;;;;4.28;1.90;;;13.50;87.30;;;;;;5482378;26;19990;-74
2024/04/16 10:54:28;;;;;;;5.22;2.50;;;13.60;86.70;;;;;;5479853;26;20005;-73
2024/04/16 10:57:14;;;;;;;3.40;1.50;;;13.80;85.90;;;;;;5451588;26;20031;-73
2024/04/16 11:00:00;;;;;;;5.50;2.10;;;13.80;85.40;;;;;;5469338;26;20330;-71
2024/04/16 11:02:46;;;;;;;3.00;1.52;;;13.90;85.50;;;;;;5483462;26;19994;-72
2024/04/16 11:05:32;;;;;;;3.85;2.05;;;14.00;84.80;;;;;;5482226;26;20021;-73
2024/04/16 11:08:18;;;;;;;4.45;1.90;;;14.00;83.90;;;;;;5478179;26;20006;-72
2024/04/16 11:11:05;;;;;;;3.55;1.40;;;14.00;83.60;;;;;;5483660;26;20025;-72
2024/04/16 11:13:52;;;;;;;3.08;1.70;;;14.00;83.70;;;;;;5472460;26;20006;-71
2024/04/16 11:16:40;;;;;;;4.30;1.73;;;13.90;84.20;;;;;;5445771;26;20010;-70
2024/04/16 11:19:26;;;;;;;3.20;1.58;;;13.80;84.20;;;;;;5463298;26;20013;-71
2024/04/16 11:22:12;;;;;;;3.45;1.88;;;13.70;84.40;;;;;;5482781;26;19994;-71
2024/04/16 11:24:58;;;;;;;3.97;1.65;;;13.60;84.60;;;;;;5479963;26;20070;-71
2024/04/16 11:27:45;;;;;;;5.60;2.47;;;13.60;84.70;;;;;;5481670;26;20042;-72
2024/04/16 11:30:31;;;;;;;3.65;1.70;;;13.50;84.10;;;;;;5479648;26;20013;-73
2024/04/16 11:33:17;;;;;;;4.03;1.60;;;13.50;84.40;;;;;;5478774;26;20392;-73
2024/04/16 11:36:10;;;;;;;3.47;1.63;;;13.50;84.60;;;;;;5464106;26;19998;-73
2024/04/16 11:38:56;;;;;;;4.18;1.83;;;13.60;84.60;;;;;;5486103;26;19994;-73
2024/04/16 11:41:43;;;;;;;2.80;1.55;;;13.70;84.40;;;;;;5477387;26;20070;-73
2024/04/16 11:44:29;;;;;;;3.58;1.70;;;13.80;84.20;;;;;;5469070;26;19994;-74
2024/04/16 11:47:15;;;;;;;2.65;1.52;;;13.90;83.90;;;;;;5458685;26;20474;-72
2024/04/16 11:50:01;;;;;;;15.18;1.67;;;13.90;83.70;;;;;;5483010;26;19994;-72
2024/04/16 11:52:47;;;;;;;4.18;1.80;;;14.00;83.40;;;;;;5477504;26;19998;-72
2024/04/16 11:55:32;;;;;;;3.65;1.50;;;14.10;83.20;;;;;;5479490;26;20009;-72
2024/04/16 11:58:18;;;;;;;3.83;2.05;;;14.20;82.90;;;;;;5479405;26;20013;-73
2024/04/16 12:01:05;;;;;;;1.95;1.40;;;14.30;82.40;;;;;;5452528;26;20377;-73
2024/04/16 12:03:51;;;;;;;5.20;1.85;;;14.40;82.00;;;;;;5478182;26;20043;-73
2024/04/16 12:06:37;;;;;;;3.00;1.27;;;14.50;81.90;;;;;;5478928;26;20002;-73
2024/04/16 12:09:23;;;;;;;3.25;1.50;;;14.60;81.60;;;;;;5481519;26;20341;-74
2024/04/16 12:12:09;;;;;;;3.53;1.40;;;14.60;81.30;;;;;;5485624;26;19994;-73
2024/04/16 12:14:55;;;;;;;4.43;1.98;;;14.70;80.90;;;;;;5485148;26;19999;-73
2024/04/16 12:17:41;;;;;;;2.97;1.60;;;14.70;80.40;;;;;;5483908;26;20009;-73
2024/04/16 12:20:27;;;;;;;4.55;1.33;;;14.70;78.90;;;;;;5486838;26;20327;-73
2024/04/16 12:23:13;;;;;;;2.92;1.38;;;14.70;79.20;;;;;;5487642;26;20774;-74
2024/04/16 12:25:59;;;;;;;3.17;1.50;;;14.60;79.00;;;;;;5487498;26;20009;-72
2024/04/16 12:28:45;;;;;;;2.83;1.83;;;14.60;78.60;;;;;;5482512;26;20005;-74
2024/04/16 12:31:31;;;;;;;2.40;1.20;;;14.50;78.10;;;;;;5474780;26;20009;-74
2024/04/16 12:34:17;;;;;;;5.88;1.58;;;14.30;78.10;;;;;;5452958;26;20006;-73
2024/04/16 12:37:03;;;;;;;2.92;1.77;;;14.10;78.30;;;;;;5450882;26;20009;-73
2024/04/16 12:39:49;;;;;;;5.13;2.08;;;13.90;78.90;;;;;;5478271;26;20013;-73
2024/04/16 12:42:35;;;;;;;2.55;1.65;;;13.70;79.20;;;;;;5483097;26;19998;-75
2024/04/16 12:45:21;;;;;;;2.50;1.60;;;13.60;79.90;;;;;;5487714;26;20006;-68
2024/04/16 12:48:08;;;;;;;2.05;1.08;;;13.50;80.10;;;;;;5473290;26;20021;-69
2024/04/16 12:50:54;;;;;;;5.70;1.40;;;13.30;80.10;;;;;;5470681;26;20361;-70
2024/04/16 12:53:40;;;;;;;2.25;1.25;;;13.20;80.30;;;;;;5479496;26;20348;-72
2024/04/16 12:56:26;;;;;;;3.33;1.50;;;13.10;80.60;;;;;;5453747;26;19995;-71
2024/04/16 12:59:12;;;;;;;2.03;1.38;;;13.10;81.10;;;;;;5478335;26;19998;-73
2024/04/16 13:01:58;;;;;;;2.30;1.08;;;13.20;81.50;;;;;;5485394;26;19994;-75
2024/04/16 13:04:44;;;;;;;2.85;1.40;;;13.20;81.50;;;;;;5472013;26;19994;-74
2024/04/16 13:07:30;;;;;;;2.70;1.30;;;13.30;81.50;;;;;;5487815;26;20009;-74
2024/04/16 13:10:16;;;;;;;5.25;1.70;;;13.30;81.40;;;;;;5480019;26;19998;-74
2024/04/16 13:13:02;;;;;;;1.73;1.25;;;13.40;81.60;;;;;;5459984;26;19998;-74
2024/04/16 13:15:48;;;;;;;3.05;1.10;;;13.50;81.70;;;;;;5484727;26;20066;-74
2024/04/16 13:18:34;;;;;;;1.80;1.10;;;13.60;81.30;;;;;;5479434;26;20002;-75
2024/04/16 13:21:20;;;;;;;2.03;1.40;;;13.80;81.00;;;;;;5455007;26;19999;-74
2024/04/16 13:24:06;;;;;;;1.63;1.20;;;13.90;80.80;;;;;;5472603;26;19998;-71
2024/04/16 13:26:52;;;;;;;2.97;1.27;;;14.00;80.60;;;;;;5487853;26;20311;-74
2024/04/16 13:29:38;;;;;;;2.05;1.38;;;14.10;80.20;;;;;;5469552;26;20427;-72
2024/04/16 13:32:24;;;;;;;3.08;1.50;;;14.20;79.70;;;;;;5475382;26;20434;-73
2024/04/16 13:35:10;;;;;;;3.67;1.20;;;14.30;79.80;;;;;;5478374;26;19998;-73
2024/04/16 13:37:57;;;;;;;3.03;1.60;;;14.40;79.30;;;;;;5466082;26;20072;-73
2024/04/16 13:40:43;;;;;;;2.47;1.30;;;14.40;79.10;;;;;;5468642;26;20003;-74
2024/04/16 13:43:29;;;;;;;2.60;1.35;;;14.50;78.80;;;;;;5479603;26;20491;-73
2024/04/16 13:46:14;;;;;;;3.45;1.85;;;14.50;78.30;;;;;;5469924;26;20442;-71
2024/04/16 13:49:00;;;;;;;2.33;1.52;;;14.50;78.20;;;;;;5450471;26;20474;-72
2024/04/16 13:51:46;;;;;;;3.20;1.50;;;14.60;78.20;;;;;;5460743;26;20517;-72
2024/04/16 13:54:32;;;;;;;2.38;1.60;;;14.60;78.20;;;;;;5480568;26;19998;-67
2024/04/16 13:57:18;;;;;;;3.92;1.63;;;14.60;78.30;;;;;;5478818;26;19998;-71
2024/04/16 14:00:04;;;;;;;4.40;1.83;;;14.60;78.30;;;;;;5472218;26;20005;-72
2024/04/16 14:02:50;;;;;;;2.15;1.60;;;14.50;78.00;;;;;;5466712;26;20003;-72
2024/04/16 14:05:37;;;;;;;5.20;1.92;;;14.50;77.60;;;;;;5479326;26;19994;-70
2024/04/16 14:08:23;;;;;;;2.50;1.02;;;14.50;77.50;;;;;;5479190;25;20014;-73
2024/04/16 14:11:09;;;;;;;2.97;1.63;;;14.60;77.50;;;;;;5482546;26;20397;-74
2024/04/16 14:13:55;;;;;;;4.95;1.40;;;14.60;77.60;;;;;;5481318;26;20038;-73
2024/04/16 14:16:41;;;;;;;3.22;1.80;;;14.60;77.10;;;;;;5478510;26;20005;-71
2024/04/16 14:19:27;;;;;;;2.75;1.48;;;14.60;76.80;;;;;;5473255;26;20080;-72
2024/04/16 14:22:13;;;;;;;3.85;2.22;;;14.50;76.80;;;;;;5456369;26;20005;-72
2024/04/16 14:24:59;;;;;;;3.05;2.15;;;14.50;76.90;;;;;;5451668;26;19994;-70
2024/04/16 14:27:45;;;;;;;4.50;1.83;;;14.30;77.00;;;;;;5465045;26;20022;-72
2024/04/16 14:30:31;;;;;;;4.10;2.00;;;14.00;77.30;;;;;;5475250;26;20395;-72
2024/04/16 14:33:17;;;;;;;6.63;2.08;;;13.90;77.70;;;;;;5472989;26;20010;-71
2024/04/16 14:36:03;;;;;;;2.88;1.67;;;13.70;78.40;;;;;;5474974;26;20012;-71
2024/04/16 14:38:49;;;;;;;5.45;1.75;;;13.50;79.40;;;;;;5482041;26;20444;-72
2024/04/16 14:41:35;;;;;;;2.25;1.50;;;13.30;79.40;;;;;;5476384;26;20004;-72
2024/04/16 14:44:21;;;;;;;3.13;1.58;;;13.20;79.40;;;;;;5455375;26;20290;-71
2024/04/16 14:47:07;;;;;;;1.60;1.40;;;13.10;79.00;;;;;;5482517;26;21970;-73
2024/04/16 14:49:53;;;;;;;2.30;1.40;;;13.10;79.00;;;;;;5480184;26;20449;-72